sensor_id;sensor_type;location;lat;lon;timestamp;P1;durP1;ratioP1;P2;durP2;ratioP2
32455;SDS011;18912;43.270;27.942;2023-07-20T00:01:35;11.43;;;4.73;;
32455;SDS011;18912;43.270;27.942;2023-07-20T00:04:00;16.80;;;5.30;;
32455;SDS011;18912;43.270;27.942;2023-07-20T00:06:26;7.80;;;4.97;;
32455;SDS011;18912;43.270;27.942;2023-07-20T00:08:53;13.15;;;4.75;;
32455;SDS011;18912;43.270;27.942;2023-07-20T00:11:19;10.43;;;5.13;;
32455;SDS011;18912;43.270;27.942;2023-07-20T00:13:45;17.83;;;5.30;;
32455;SDS011;18912;43.270;27.942;2023-07-20T00:16:10;10.27;;;4.47;;
32455;SDS011;18912;43.270;27.942;2023-07-20T00:18:36;15.27;;;4.83;;
32455;SDS011;18912;43.270;27.942;2023-07-20T00:21:02;9.97;;;4.10;;
32455;SDS011;18912;43.270;27.942;2023-07-20T00:23:27;5.00;;;4.00;;
32455;SDS011;18912;43.270;27.942;2023-07-20T00:25:53;13.63;;;4.57;;
32455;SDS011;18912;43.270;27.942;2023-07-20T00:28:19;6.15;;;4.13;;
32455;SDS011;18912;43.270;27.942;2023-07-20T00:30:45;16.77;;;4.75;;
32455;SDS011;18912;43.270;27.942;2023-07-20T00:33:10;16.30;;;4.63;;
32455;SDS011;18912;43.270;27.942;2023-07-20T00:35:38;8.52;;;4.55;;
32455;SDS011;18912;43.270;27.942;2023-07-20T00:38:04;8.15;;;4.72;;
32455;SDS011;18912;43.270;27.942;2023-07-20T00:40:39;10.02;;;4.72;;
32455;SDS011;18912;43.270;27.942;2023-07-20T00:43:05;15.35;;;4.55;;
32455;SDS011;18912;43.270;27.942;2023-07-20T00:45:31;5.78;;;4.32;;
32455;SDS011;18912;43.270;27.942;2023-07-20T00:48:01;12.90;;;4.30;;
32455;SDS011;18912;43.270;27.942;2023-07-20T00:50:27;9.00;;;4.63;;
32455;SDS011;18912;43.270;27.942;2023-07-20T00:52:54;14.48;;;3.80;;
32455;SDS011;18912;43.270;27.942;2023-07-20T00:55:20;7.57;;;4.38;;
32455;SDS011;18912;43.270;27.942;2023-07-20T01:00:12;6.95;;;4.20;;
32455;SDS011;18912;43.270;27.942;2023-07-20T01:02:39;15.90;;;4.43;;
32455;SDS011;18912;43.270;27.942;2023-07-20T01:05:05;9.00;;;4.37;;
32455;SDS011;18912;43.270;27.942;2023-07-20T01:12:47;11.38;;;4.53;;
32455;SDS011;18912;43.270;27.942;2023-07-20T01:15:16;11.57;;;3.92;;
32455;SDS011;18912;43.270;27.942;2023-07-20T01:17:42;8.80;;;4.60;;
32455;SDS011;18912;43.270;27.942;2023-07-20T01:20:08;17.50;;;4.37;;
32455;SDS011;18912;43.270;27.942;2023-07-20T01:28:41;8.00;;;4.70;;
32455;SDS011;18912;43.270;27.942;2023-07-20T01:33:56;9.23;;;4.43;;
32455;SDS011;18912;43.270;27.942;2023-07-20T01:36:26;8.60;;;4.50;;
32455;SDS011;18912;43.270;27.942;2023-07-20T01:38:55;7.68;;;4.47;;
32455;SDS011;18912;43.270;27.942;2023-07-20T01:41:21;7.30;;;4.68;;
32455;SDS011;18912;43.270;27.942;2023-07-20T01:43:47;8.30;;;4.53;;
32455;SDS011;18912;43.270;27.942;2023-07-20T01:46:13;11.90;;;4.78;;
32455;SDS011;18912;43.270;27.942;2023-07-20T01:48:39;13.33;;;4.80;;
32455;SDS011;18912;43.270;27.942;2023-07-20T01:51:04;11.00;;;4.63;;
32455;SDS011;18912;43.270;27.942;2023-07-20T01:53:29;12.13;;;4.57;;
32455;SDS011;18912;43.270;27.942;2023-07-20T01:55:56;8.60;;;4.70;;
32455;SDS011;18912;43.270;27.942;2023-07-20T01:58:22;10.95;;;4.78;;
32455;SDS011;18912;43.270;27.942;2023-07-20T02:00:48;10.68;;;4.07;;
32455;SDS011;18912;43.270;27.942;2023-07-20T02:03:14;11.63;;;5.13;;
32455;SDS011;18912;43.270;27.942;2023-07-20T02:05:41;6.80;;;4.37;;
32455;SDS011;18912;43.270;27.942;2023-07-20T02:08:07;10.55;;;4.43;;
32455;SDS011;18912;43.270;27.942;2023-07-20T02:10:32;7.63;;;4.17;;
32455;SDS011;18912;43.270;27.942;2023-07-20T02:12:58;11.63;;;4.57;;
32455;SDS011;18912;43.270;27.942;2023-07-20T02:15:23;7.40;;;4.47;;
32455;SDS011;18912;43.270;27.942;2023-07-20T02:17:49;9.77;;;5.23;;
32455;SDS011;18912;43.270;27.942;2023-07-20T02:20:14;10.80;;;5.10;;
32455;SDS011;18912;43.270;27.942;2023-07-20T02:22:40;17.90;;;5.70;;
32455;SDS011;18912;43.270;27.942;2023-07-20T02:25:06;11.83;;;5.30;;
32455;SDS011;18912;43.270;27.942;2023-07-20T02:30:01;9.40;;;5.68;;
32455;SDS011;18912;43.270;27.942;2023-07-20T02:32:27;11.10;;;5.93;;
32455;SDS011;18912;43.270;27.942;2023-07-20T02:34:53;13.75;;;5.43;;
32455;SDS011;18912;43.270;27.942;2023-07-20T02:37:19;14.13;;;6.10;;
32455;SDS011;18912;43.270;27.942;2023-07-20T02:39:44;16.70;;;6.57;;
32455;SDS011;18912;43.270;27.942;2023-07-20T02:42:10;10.53;;;5.90;;
32455;SDS011;18912;43.270;27.942;2023-07-20T02:44:35;13.97;;;6.50;;
32455;SDS011;18912;43.270;27.942;2023-07-20T02:47:01;15.00;;;6.57;;
32455;SDS011;18912;43.270;27.942;2023-07-20T02:49:26;20.57;;;5.50;;
32455;SDS011;18912;43.270;27.942;2023-07-20T02:51:52;16.25;;;5.55;;
32455;SDS011;18912;43.270;27.942;2023-07-20T02:54:18;10.17;;;5.90;;
32455;SDS011;18912;43.270;27.942;2023-07-20T02:56:43;19.27;;;5.53;;
32455;SDS011;18912;43.270;27.942;2023-07-20T02:59:09;12.77;;;6.07;;
32455;SDS011;18912;43.270;27.942;2023-07-20T03:01:34;13.87;;;5.90;;
32455;SDS011;18912;43.270;27.942;2023-07-20T03:04:00;15.97;;;5.90;;
32455;SDS011;18912;43.270;27.942;2023-07-20T03:06:25;11.00;;;6.03;;
32455;SDS011;18912;43.270;27.942;2023-07-20T03:08:51;14.00;;;6.00;;
32455;SDS011;18912;43.270;27.942;2023-07-20T03:11:18;12.20;;;5.53;;
32455;SDS011;18912;43.270;27.942;2023-07-20T03:16:10;13.07;;;5.78;;
32455;SDS011;18912;43.270;27.942;2023-07-20T03:18:40;16.98;;;5.93;;
32455;SDS011;18912;43.270;27.942;2023-07-20T03:21:07;28.73;;;6.70;;
32455;SDS011;18912;43.270;27.942;2023-07-20T03:23:33;23.73;;;6.25;;
32455;SDS011;18912;43.270;27.942;2023-07-20T03:25:59;12.37;;;5.80;;
32455;SDS011;18912;43.270;27.942;2023-07-20T03:28:25;10.80;;;5.70;;
32455;SDS011;18912;43.270;27.942;2023-07-20T03:30:54;19.93;;;6.40;;
32455;SDS011;18912;43.270;27.942;2023-07-20T03:33:28;20.00;;;5.70;;
32455;SDS011;18912;43.270;27.942;2023-07-20T03:35:54;21.67;;;5.70;;
32455;SDS011;18912;43.270;27.942;2023-07-20T03:38:20;16.55;;;6.28;;
32455;SDS011;18912;43.270;27.942;2023-07-20T03:43:16;14.35;;;5.97;;
32455;SDS011;18912;43.270;27.942;2023-07-20T03:45:42;19.35;;;5.82;;
32455;SDS011;18912;43.270;27.942;2023-07-20T03:48:07;28.93;;;5.90;;
32455;SDS011;18912;43.270;27.942;2023-07-20T03:50:33;29.83;;;6.17;;
32455;SDS011;18912;43.270;27.942;2023-07-20T03:52:58;25.30;;;6.00;;
32455;SDS011;18912;43.270;27.942;2023-07-20T03:55:24;16.03;;;5.73;;
32455;SDS011;18912;43.270;27.942;2023-07-20T03:57:49;34.37;;;6.37;;
32455;SDS011;18912;43.270;27.942;2023-07-20T04:00:16;31.55;;;6.07;;
32455;SDS011;18912;43.270;27.942;2023-07-20T04:02:42;25.55;;;6.25;;
32455;SDS011;18912;43.270;27.942;2023-07-20T04:05:08;30.50;;;5.37;;
32455;SDS011;18912;43.270;27.942;2023-07-20T04:07:33;17.63;;;6.27;;
32455;SDS011;18912;43.270;27.942;2023-07-20T04:09:59;32.13;;;5.43;;
32455;SDS011;18912;43.270;27.942;2023-07-20T04:12:24;39.37;;;5.53;;
32455;SDS011;18912;43.270;27.942;2023-07-20T04:14:50;20.63;;;5.57;;
32455;SDS011;18912;43.270;27.942;2023-07-20T04:17:15;23.87;;;5.20;;
32455;SDS011;18912;43.270;27.942;2023-07-20T04:19:40;26.50;;;5.80;;
32455;SDS011;18912;43.270;27.942;2023-07-20T04:22:06;30.27;;;5.60;;
32455;SDS011;18912;43.270;27.942;2023-07-20T04:24:31;20.87;;;5.67;;
32455;SDS011;18912;43.270;27.942;2023-07-20T04:26:57;24.67;;;5.73;;
32455;SDS011;18912;43.270;27.942;2023-07-20T04:29:22;23.20;;;5.33;;
32455;SDS011;18912;43.270;27.942;2023-07-20T04:31:48;34.70;;;6.43;;
32455;SDS011;18912;43.270;27.942;2023-07-20T04:34:13;19.60;;;6.50;;
32455;SDS011;18912;43.270;27.942;2023-07-20T04:36:38;27.67;;;6.20;;
32455;SDS011;18912;43.270;27.942;2023-07-20T04:39:04;24.63;;;6.07;;
32455;SDS011;18912;43.270;27.942;2023-07-20T04:41:30;27.23;;;5.87;;
32455;SDS011;18912;43.270;27.942;2023-07-20T04:43:55;15.70;;;5.93;;
32455;SDS011;18912;43.270;27.942;2023-07-20T04:46:21;22.73;;;6.83;;
32455;SDS011;18912;43.270;27.942;2023-07-20T04:48:47;22.60;;;6.63;;
32455;SDS011;18912;43.270;27.942;2023-07-20T04:51:13;23.88;;;5.55;;
32455;SDS011;18912;43.270;27.942;2023-07-20T04:53:38;26.03;;;6.10;;
32455;SDS011;18912;43.270;27.942;2023-07-20T04:56:04;26.97;;;6.13;;
32455;SDS011;18912;43.270;27.942;2023-07-20T04:58:29;33.43;;;6.00;;
32455;SDS011;18912;43.270;27.942;2023-07-20T05:00:55;25.20;;;6.53;;
32455;SDS011;18912;43.270;27.942;2023-07-20T05:03:20;49.47;;;6.50;;
32455;SDS011;18912;43.270;27.942;2023-07-20T05:05:49;33.33;;;5.83;;
32455;SDS011;18912;43.270;27.942;2023-07-20T05:08:15;38.85;;;6.22;;
32455;SDS011;18912;43.270;27.942;2023-07-20T05:10:41;31.55;;;6.97;;
32455;SDS011;18912;43.270;27.942;2023-07-20T05:13:06;31.20;;;6.57;;
32455;SDS011;18912;43.270;27.942;2023-07-20T05:15:33;29.05;;;5.88;;
32455;SDS011;18912;43.270;27.942;2023-07-20T05:17:59;30.08;;;6.53;;
32455;SDS011;18912;43.270;27.942;2023-07-20T05:20:25;35.17;;;6.03;;
32455;SDS011;18912;43.270;27.942;2023-07-20T05:22:51;25.20;;;5.60;;
32455;SDS011;18912;43.270;27.942;2023-07-20T05:25:17;26.25;;;6.88;;
32455;SDS011;18912;43.270;27.942;2023-07-20T05:27:43;25.30;;;6.17;;
32455;SDS011;18912;43.270;27.942;2023-07-20T05:30:09;33.63;;;7.25;;
32455;SDS011;18912;43.270;27.942;2023-07-20T05:32:35;31.30;;;5.90;;
32455;SDS011;18912;43.270;27.942;2023-07-20T05:35:00;23.57;;;5.27;;
32455;SDS011;18912;43.270;27.942;2023-07-20T05:37:26;29.97;;;5.97;;
32455;SDS011;18912;43.270;27.942;2023-07-20T05:39:52;27.47;;;5.60;;
32455;SDS011;18912;43.270;27.942;2023-07-20T05:42:17;17.53;;;5.63;;
32455;SDS011;18912;43.270;27.942;2023-07-20T05:44:42;22.77;;;5.13;;
32455;SDS011;18912;43.270;27.942;2023-07-20T05:47:08;32.13;;;5.23;;
32455;SDS011;18912;43.270;27.942;2023-07-20T05:49:34;27.37;;;6.00;;
32455;SDS011;18912;43.270;27.942;2023-07-20T05:52:00;43.63;;;6.55;;
32455;SDS011;18912;43.270;27.942;2023-07-20T05:54:26;34.53;;;6.82;;
32455;SDS011;18912;43.270;27.942;2023-07-20T05:56:52;27.48;;;5.97;;
32455;SDS011;18912;43.270;27.942;2023-07-20T05:59:18;29.55;;;5.60;;
32455;SDS011;18912;43.270;27.942;2023-07-20T06:01:44;17.45;;;4.95;;
32455;SDS011;18912;43.270;27.942;2023-07-20T06:04:10;18.97;;;5.30;;
32455;SDS011;18912;43.270;27.942;2023-07-20T06:06:35;31.33;;;6.23;;
32455;SDS011;18912;43.270;27.942;2023-07-20T06:09:01;24.77;;;4.70;;
32455;SDS011;18912;43.270;27.942;2023-07-20T06:11:32;26.00;;;4.43;;
32455;SDS011;18912;43.270;27.942;2023-07-20T06:13:58;29.13;;;4.57;;
32455;SDS011;18912;43.270;27.942;2023-07-20T06:16:24;27.95;;;4.45;;
32455;SDS011;18912;43.270;27.942;2023-07-20T06:18:50;39.63;;;4.37;;
32455;SDS011;18912;43.270;27.942;2023-07-20T06:21:15;39.77;;;5.17;;
32455;SDS011;18912;43.270;27.942;2023-07-20T06:23:41;24.97;;;4.23;;
32455;SDS011;18912;43.270;27.942;2023-07-20T06:26:06;26.00;;;4.27;;
32455;SDS011;18912;43.270;27.942;2023-07-20T06:28:32;25.52;;;4.40;;
32455;SDS011;18912;43.270;27.942;2023-07-20T06:30:59;20.73;;;3.92;;
32455;SDS011;18912;43.270;27.942;2023-07-20T06:33:25;37.70;;;4.80;;
32455;SDS011;18912;43.270;27.942;2023-07-20T06:35:50;14.50;;;4.13;;
32455;SDS011;18912;43.270;27.942;2023-07-20T06:38:17;12.50;;;3.78;;
32455;SDS011;18912;43.270;27.942;2023-07-20T06:40:43;13.27;;;4.30;;
32455;SDS011;18912;43.270;27.942;2023-07-20T06:43:09;27.30;;;3.47;;
32455;SDS011;18912;43.270;27.942;2023-07-20T06:45:34;19.70;;;4.83;;
32455;SDS011;18912;43.270;27.942;2023-07-20T06:48:00;19.97;;;3.50;;
32455;SDS011;18912;43.270;27.942;2023-07-20T07:49:43;8.70;;;3.17;;
32455;SDS011;18912;43.270;27.942;2023-07-20T07:52:09;26.53;;;5.70;;
32455;SDS011;18912;43.270;27.942;2023-07-20T07:54:34;17.27;;;3.60;;
32455;SDS011;18912;43.270;27.942;2023-07-20T07:57:00;12.77;;;3.13;;
32455;SDS011;18912;43.270;27.942;2023-07-20T07:59:26;14.20;;;2.93;;
32455;SDS011;18912;43.270;27.942;2023-07-20T08:01:52;14.07;;;3.83;;
32455;SDS011;18912;43.270;27.942;2023-07-20T08:04:17;18.08;;;3.58;;
32455;SDS011;18912;43.270;27.942;2023-07-20T08:06:44;8.50;;;2.73;;
32455;SDS011;18912;43.270;27.942;2023-07-20T08:11:35;12.57;;;3.22;;
32455;SDS011;18912;43.270;27.942;2023-07-20T08:14:00;13.33;;;3.20;;
32455;SDS011;18912;43.270;27.942;2023-07-20T08:16:26;8.30;;;2.70;;
32455;SDS011;18912;43.270;27.942;2023-07-20T08:18:52;8.48;;;3.08;;
32455;SDS011;18912;43.270;27.942;2023-07-20T08:21:17;17.63;;;3.10;;
32455;SDS011;18912;43.270;27.942;2023-07-20T08:23:43;14.13;;;3.63;;
32455;SDS011;18912;43.270;27.942;2023-07-20T08:26:08;16.53;;;5.97;;
32455;SDS011;18912;43.270;27.942;2023-07-20T08:28:34;13.30;;;5.50;;
32455;SDS011;18912;43.270;27.942;2023-07-20T08:30:59;15.98;;;5.80;;
32455;SDS011;18912;43.270;27.942;2023-07-20T08:33:25;11.80;;;4.87;;
32455;SDS011;18912;43.270;27.942;2023-07-20T08:35:50;15.50;;;4.30;;
32455;SDS011;18912;43.270;27.942;2023-07-20T08:38:16;12.03;;;3.50;;
32455;SDS011;18912;43.270;27.942;2023-07-20T08:40:42;11.27;;;3.40;;
32455;SDS011;18912;43.270;27.942;2023-07-20T08:43:12;15.75;;;3.90;;
32455;SDS011;18912;43.270;27.942;2023-07-20T08:45:39;11.45;;;3.10;;
32455;SDS011;18912;43.270;27.942;2023-07-20T08:48:06;11.10;;;2.83;;
32455;SDS011;18912;43.270;27.942;2023-07-20T08:50:32;10.18;;;3.03;;
32455;SDS011;18912;43.270;27.942;2023-07-20T08:52:59;10.82;;;2.90;;
32455;SDS011;18912;43.270;27.942;2023-07-20T08:55:26;30.42;;;3.10;;
32455;SDS011;18912;43.270;27.942;2023-07-20T08:57:55;10.50;;;3.40;;
32455;SDS011;18912;43.270;27.942;2023-07-20T09:00:23;20.40;;;3.15;;
32455;SDS011;18912;43.270;27.942;2023-07-20T09:02:50;15.77;;;3.05;;
32455;SDS011;18912;43.270;27.942;2023-07-20T09:05:18;21.67;;;3.40;;
32455;SDS011;18912;43.270;27.942;2023-07-20T09:07:44;13.07;;;3.33;;
32455;SDS011;18912;43.270;27.942;2023-07-20T09:10:09;16.42;;;3.05;;
32455;SDS011;18912;43.270;27.942;2023-07-20T09:12:37;11.65;;;2.95;;
32455;SDS011;18912;43.270;27.942;2023-07-20T09:15:04;19.40;;;3.50;;
32455;SDS011;18912;43.270;27.942;2023-07-20T09:17:30;18.50;;;3.50;;
32455;SDS011;18912;43.270;27.942;2023-07-20T09:19:55;10.80;;;3.07;;
32455;SDS011;18912;43.270;27.942;2023-07-20T09:22:21;10.93;;;3.50;;
32455;SDS011;18912;43.270;27.942;2023-07-20T09:24:46;9.13;;;3.73;;
32455;SDS011;18912;43.270;27.942;2023-07-20T09:27:12;15.83;;;3.50;;
32455;SDS011;18912;43.270;27.942;2023-07-20T09:29:50;14.63;;;4.27;;
32455;SDS011;18912;43.270;27.942;2023-07-20T09:32:20;25.92;;;3.65;;
32455;SDS011;18912;43.270;27.942;2023-07-20T09:34:46;18.80;;;3.92;;
32455;SDS011;18912;43.270;27.942;2023-07-20T09:37:12;19.92;;;3.90;;
32455;SDS011;18912;43.270;27.942;2023-07-20T09:39:44;14.60;;;3.70;;
32455;SDS011;18912;43.270;27.942;2023-07-20T09:42:11;11.13;;;3.78;;
32455;SDS011;18912;43.270;27.942;2023-07-20T09:44:38;17.17;;;3.88;;
32455;SDS011;18912;43.270;27.942;2023-07-20T09:47:04;21.27;;;4.35;;
32455;SDS011;18912;43.270;27.942;2023-07-20T09:49:30;21.63;;;3.60;;
32455;SDS011;18912;43.270;27.942;2023-07-20T09:51:57;12.77;;;3.65;;
32455;SDS011;18912;43.270;27.942;2023-07-20T09:54:25;17.55;;;3.50;;
32455;SDS011;18912;43.270;27.942;2023-07-20T09:56:52;10.98;;;3.70;;
32455;SDS011;18912;43.270;27.942;2023-07-20T09:59:18;8.43;;;3.42;;
32455;SDS011;18912;43.270;27.942;2023-07-20T10:01:44;11.10;;;3.83;;
32455;SDS011;18912;43.270;27.942;2023-07-20T10:04:11;11.27;;;3.75;;
32455;SDS011;18912;43.270;27.942;2023-07-20T10:06:39;19.83;;;4.07;;
32455;SDS011;18912;43.270;27.942;2023-07-20T10:09:08;18.30;;;6.22;;
32455;SDS011;18912;43.270;27.942;2023-07-20T10:11:36;17.30;;;4.47;;
32455;SDS011;18912;43.270;27.942;2023-07-20T10:14:04;8.48;;;3.63;;
32455;SDS011;18912;43.270;27.942;2023-07-20T10:16:36;13.52;;;3.90;;
32455;SDS011;18912;43.270;27.942;2023-07-20T10:22:03;15.25;;;3.80;;
32455;SDS011;18912;43.270;27.942;2023-07-20T10:24:35;17.25;;;3.63;;
32455;SDS011;18912;43.270;27.942;2023-07-20T10:27:03;10.35;;;3.00;;
32455;SDS011;18912;43.270;27.942;2023-07-20T10:29:30;10.23;;;3.67;;
32455;SDS011;18912;43.270;27.942;2023-07-20T10:31:56;11.15;;;4.40;;
32455;SDS011;18912;43.270;27.942;2023-07-20T10:34:22;18.52;;;3.58;;
32455;SDS011;18912;43.270;27.942;2023-07-20T10:39:32;9.23;;;3.25;;
32455;SDS011;18912;43.270;27.942;2023-07-20T10:44:34;12.13;;;3.03;;
32455;SDS011;18912;43.270;27.942;2023-07-20T10:47:03;12.10;;;3.42;;
32455;SDS011;18912;43.270;27.942;2023-07-20T10:49:34;7.55;;;2.65;;
32455;SDS011;18912;43.270;27.942;2023-07-20T10:57:21;5.80;;;2.78;;
32455;SDS011;18912;43.270;27.942;2023-07-20T10:59:47;12.88;;;2.80;;
32455;SDS011;18912;43.270;27.942;2023-07-20T11:02:13;10.05;;;2.75;;
32455;SDS011;18912;43.270;27.942;2023-07-20T11:04:47;6.90;;;2.70;;
32455;SDS011;18912;43.270;27.942;2023-07-20T11:07:17;7.38;;;2.72;;
32455;SDS011;18912;43.270;27.942;2023-07-20T11:10:12;17.27;;;2.90;;
32455;SDS011;18912;43.270;27.942;2023-07-20T11:12:55;34.42;;;3.40;;
32455;SDS011;18912;43.270;27.942;2023-07-20T11:15:52;13.93;;;2.92;;
32455;SDS011;18912;43.270;27.942;2023-07-20T11:18:28;7.05;;;2.72;;
32455;SDS011;18912;43.270;27.942;2023-07-20T11:20:54;10.05;;;2.85;;
32455;SDS011;18912;43.270;27.942;2023-07-20T11:23:20;6.32;;;2.67;;
32455;SDS011;18912;43.270;27.942;2023-07-20T11:28:12;44.85;;;3.50;;
32455;SDS011;18912;43.270;27.942;2023-07-20T11:30:38;9.20;;;2.50;;
32455;SDS011;18912;43.270;27.942;2023-07-20T11:35:30;14.95;;;3.33;;
32455;SDS011;18912;43.270;27.942;2023-07-20T11:37:56;10.30;;;2.83;;
32455;SDS011;18912;43.270;27.942;2023-07-20T11:40:22;15.23;;;3.05;;
32455;SDS011;18912;43.270;27.942;2023-07-20T11:42:49;11.20;;;2.88;;
32455;SDS011;18912;43.270;27.942;2023-07-20T11:47:41;11.32;;;2.83;;
32455;SDS011;18912;43.270;27.942;2023-07-20T11:50:07;15.13;;;4.32;;
32455;SDS011;18912;43.270;27.942;2023-07-20T11:55:00;20.88;;;3.58;;
32455;SDS011;18912;43.270;27.942;2023-07-20T11:57:25;10.40;;;3.40;;
32455;SDS011;18912;43.270;27.942;2023-07-20T11:59:55;8.20;;;3.40;;
32455;SDS011;18912;43.270;27.942;2023-07-20T12:02:22;16.38;;;4.25;;
32455;SDS011;18912;43.270;27.942;2023-07-20T12:04:51;20.75;;;3.80;;
32455;SDS011;18912;43.270;27.942;2023-07-20T12:07:18;20.30;;;3.60;;
32455;SDS011;18912;43.270;27.942;2023-07-20T12:09:44;9.90;;;4.05;;
32455;SDS011;18912;43.270;27.942;2023-07-20T12:12:10;11.82;;;4.03;;
32455;SDS011;18912;43.270;27.942;2023-07-20T12:14:38;16.50;;;4.15;;
32455;SDS011;18912;43.270;27.942;2023-07-20T12:17:04;13.70;;;3.85;;
32455;SDS011;18912;43.270;27.942;2023-07-20T12:19:37;13.10;;;5.40;;
32455;SDS011;18912;43.270;27.942;2023-07-20T12:22:03;16.15;;;3.80;;
32455;SDS011;18912;43.270;27.942;2023-07-20T12:24:29;16.65;;;4.32;;
32455;SDS011;18912;43.270;27.942;2023-07-20T12:26:57;21.87;;;4.70;;
32455;SDS011;18912;43.270;27.942;2023-07-20T12:29:23;17.58;;;4.78;;
32455;SDS011;18912;43.270;27.942;2023-07-20T12:31:49;18.15;;;4.53;;
32455;SDS011;18912;43.270;27.942;2023-07-20T12:34:14;17.60;;;4.50;;
32455;SDS011;18912;43.270;27.942;2023-07-20T12:36:40;23.50;;;5.23;;
32455;SDS011;18912;43.270;27.942;2023-07-20T12:39:05;18.63;;;4.87;;
32455;SDS011;18912;43.270;27.942;2023-07-20T12:41:31;10.50;;;4.30;;
32455;SDS011;18912;43.270;27.942;2023-07-20T12:43:56;17.70;;;4.30;;
32455;SDS011;18912;43.270;27.942;2023-07-20T12:46:23;9.52;;;4.50;;
32455;SDS011;18912;43.270;27.942;2023-07-20T12:48:49;24.70;;;4.18;;
32455;SDS011;18912;43.270;27.942;2023-07-20T12:51:14;24.87;;;4.97;;
32455;SDS011;18912;43.270;27.942;2023-07-20T12:53:40;76.27;;;6.53;;
32455;SDS011;18912;43.270;27.942;2023-07-20T12:56:05;22.87;;;4.30;;
32455;SDS011;18912;43.270;27.942;2023-07-20T12:58:31;16.13;;;4.70;;
32455;SDS011;18912;43.270;27.942;2023-07-20T13:00:57;21.73;;;4.40;;
32455;SDS011;18912;43.270;27.942;2023-07-20T13:03:22;18.00;;;3.97;;
32455;SDS011;18912;43.270;27.942;2023-07-20T13:05:48;18.23;;;4.07;;
32455;SDS011;18912;43.270;27.942;2023-07-20T13:08:14;30.75;;;4.60;;
32455;SDS011;18912;43.270;27.942;2023-07-20T13:10:40;25.70;;;4.65;;
32455;SDS011;18912;43.270;27.942;2023-07-20T13:13:05;20.13;;;5.03;;
32455;SDS011;18912;43.270;27.942;2023-07-20T13:15:32;16.40;;;4.00;;
32455;SDS011;18912;43.270;27.942;2023-07-20T13:18:05;11.98;;;4.03;;
32455;SDS011;18912;43.270;27.942;2023-07-20T13:20:30;15.27;;;4.40;;
32455;SDS011;18912;43.270;27.942;2023-07-20T13:22:56;15.47;;;4.17;;
32455;SDS011;18912;43.270;27.942;2023-07-20T13:25:21;19.00;;;4.03;;
32455;SDS011;18912;43.270;27.942;2023-07-20T13:27:47;10.83;;;4.07;;
32455;SDS011;18912;43.270;27.942;2023-07-20T13:30:12;18.80;;;4.43;;
32455;SDS011;18912;43.270;27.942;2023-07-20T13:32:42;14.00;;;3.90;;
32455;SDS011;18912;43.270;27.942;2023-07-20T13:35:10;9.70;;;4.28;;
32455;SDS011;18912;43.270;27.942;2023-07-20T13:37:37;8.63;;;4.10;;
32455;SDS011;18912;43.270;27.942;2023-07-20T13:40:03;13.85;;;4.25;;
32455;SDS011;18912;43.270;27.942;2023-07-20T13:42:30;20.00;;;4.80;;
32455;SDS011;18912;43.270;27.942;2023-07-20T13:44:56;15.80;;;4.90;;
32455;SDS011;18912;43.270;27.942;2023-07-20T13:47:22;18.80;;;5.13;;
32455;SDS011;18912;43.270;27.942;2023-07-20T13:49:47;18.50;;;4.43;;
32455;SDS011;18912;43.270;27.942;2023-07-20T13:52:13;12.80;;;4.03;;
32455;SDS011;18912;43.270;27.942;2023-07-20T13:54:38;11.77;;;4.90;;
32455;SDS011;18912;43.270;27.942;2023-07-20T13:57:04;14.20;;;4.97;;
32455;SDS011;18912;43.270;27.942;2023-07-20T13:59:30;15.63;;;4.10;;
32455;SDS011;18912;43.270;27.942;2023-07-20T14:01:55;16.87;;;4.33;;
32455;SDS011;18912;43.270;27.942;2023-07-20T14:04:21;16.90;;;4.70;;
32455;SDS011;18912;43.270;27.942;2023-07-20T14:06:46;16.07;;;4.70;;
32455;SDS011;18912;43.270;27.942;2023-07-20T14:09:12;16.30;;;4.53;;
32455;SDS011;18912;43.270;27.942;2023-07-20T14:11:38;12.15;;;4.50;;
32455;SDS011;18912;43.270;27.942;2023-07-20T14:14:03;12.63;;;4.90;;
32455;SDS011;18912;43.270;27.942;2023-07-20T14:16:29;10.13;;;4.50;;
32455;SDS011;18912;43.270;27.942;2023-07-20T14:18:54;14.77;;;5.03;;
32455;SDS011;18912;43.270;27.942;2023-07-20T14:21:20;14.27;;;4.37;;
32455;SDS011;18912;43.270;27.942;2023-07-20T14:23:46;21.67;;;5.20;;
32455;SDS011;18912;43.270;27.942;2023-07-20T14:26:14;8.27;;;4.68;;
32455;SDS011;18912;43.270;27.942;2023-07-20T14:28:40;18.48;;;4.90;;
32455;SDS011;18912;43.270;27.942;2023-07-20T14:31:06;15.73;;;4.67;;
32455;SDS011;18912;43.270;27.942;2023-07-20T14:33:31;16.23;;;5.38;;
32455;SDS011;18912;43.270;27.942;2023-07-20T14:35:57;14.43;;;4.80;;
32455;SDS011;18912;43.270;27.942;2023-07-20T14:38:23;19.27;;;5.07;;
32455;SDS011;18912;43.270;27.942;2023-07-20T14:40:49;29.25;;;5.05;;
32455;SDS011;18912;43.270;27.942;2023-07-20T14:43:14;14.97;;;4.90;;
32455;SDS011;18912;43.270;27.942;2023-07-20T14:45:43;17.50;;;5.20;;
32455;SDS011;18912;43.270;27.942;2023-07-20T14:48:08;17.35;;;5.32;;
32455;SDS011;18912;43.270;27.942;2023-07-20T14:50:34;20.07;;;4.93;;
32455;SDS011;18912;43.270;27.942;2023-07-20T14:53:00;10.63;;;4.50;;
32455;SDS011;18912;43.270;27.942;2023-07-20T14:55:26;12.77;;;4.35;;
32455;SDS011;18912;43.270;27.942;2023-07-20T14:57:51;10.77;;;4.43;;
32455;SDS011;18912;43.270;27.942;2023-07-20T15:00:17;15.50;;;4.90;;
32455;SDS011;18912;43.270;27.942;2023-07-20T15:02:43;21.30;;;5.25;;
32455;SDS011;18912;43.270;27.942;2023-07-20T15:05:09;21.33;;;5.38;;
32455;SDS011;18912;43.270;27.942;2023-07-20T15:07:36;15.00;;;5.00;;
32455;SDS011;18912;43.270;27.942;2023-07-20T15:10:03;23.23;;;5.20;;
32455;SDS011;18912;43.270;27.942;2023-07-20T15:12:29;15.95;;;4.38;;
32455;SDS011;18912;43.270;27.942;2023-07-20T15:17:34;16.92;;;5.05;;
32455;SDS011;18912;43.270;27.942;2023-07-20T15:20:01;10.45;;;5.20;;
32455;SDS011;18912;43.270;27.942;2023-07-20T15:22:31;11.20;;;4.78;;
32455;SDS011;18912;43.270;27.942;2023-07-20T15:24:58;11.43;;;4.43;;
32455;SDS011;18912;43.270;27.942;2023-07-20T15:27:24;8.55;;;4.80;;
32455;SDS011;18912;43.270;27.942;2023-07-20T15:29:49;16.10;;;5.17;;
32455;SDS011;18912;43.270;27.942;2023-07-20T15:32:15;12.43;;;4.37;;
32455;SDS011;18912;43.270;27.942;2023-07-20T15:34:43;18.10;;;5.30;;
32455;SDS011;18912;43.270;27.942;2023-07-20T15:37:09;10.13;;;5.03;;
32455;SDS011;18912;43.270;27.942;2023-07-20T15:39:35;25.58;;;5.38;;
32455;SDS011;18912;43.270;27.942;2023-07-20T15:42:01;17.23;;;5.60;;
32455;SDS011;18912;43.270;27.942;2023-07-20T15:44:27;9.05;;;5.28;;
32455;SDS011;18912;43.270;27.942;2023-07-20T15:46:53;17.83;;;5.10;;
32455;SDS011;18912;43.270;27.942;2023-07-20T15:49:19;11.20;;;5.47;;
32455;SDS011;18912;43.270;27.942;2023-07-20T15:51:45;10.55;;;5.00;;
32455;SDS011;18912;43.270;27.942;2023-07-20T15:54:11;12.57;;;5.60;;
32455;SDS011;18912;43.270;27.942;2023-07-20T15:56:38;16.88;;;5.60;;
32455;SDS011;18912;43.270;27.942;2023-07-20T15:59:05;9.52;;;6.00;;
32455;SDS011;18912;43.270;27.942;2023-07-20T16:01:33;27.58;;;6.50;;
32455;SDS011;18912;43.270;27.942;2023-07-20T16:03:59;15.30;;;7.32;;
32455;SDS011;18912;43.270;27.942;2023-07-20T16:06:37;17.10;;;7.85;;
32455;SDS011;18912;43.270;27.942;2023-07-20T16:09:09;17.95;;;9.23;;
32455;SDS011;18912;43.270;27.942;2023-07-20T16:11:34;29.87;;;10.43;;